createdAt,value
2022-07-27T00:04:43.464Z,98107.47
2022-07-27T00:07:53.411Z,98106.63
2022-07-27T00:12:12.774Z,98115.38
2022-07-27T00:15:20.478Z,98108.09
2022-07-27T00:19:38.805Z,98109.03
2022-07-27T00:22:45.127Z,98105.94
2022-07-27T00:25:53.638Z,98106.88
2022-07-27T00:28:59.882Z,98119.53
2022-07-27T00:32:12.318Z,98113.66
2022-07-27T00:35:19.395Z,98125.31
2022-07-27T00:38:25.408Z,98118.09
2022-07-27T00:41:34.451Z,98118.94
2022-07-27T00:44:39.812Z,98127.84
2022-07-27T00:47:46.280Z,98122.56
2022-07-27T00:50:52.005Z,98132.28
2022-07-27T00:53:58.913Z,98127.25
2022-07-27T00:57:07.462Z,98122.44
2022-07-27T01:00:14.317Z,98124.59
2022-07-27T01:03:19.672Z,98135.41
2022-07-27T01:06:29.599Z,98137.09
2022-07-27T01:09:51.709Z,98131.81
2022-07-27T01:13:00.906Z,98137.09
2022-07-27T01:16:09.056Z,98139.03
2022-07-27T01:19:18.087Z,98140.94
2022-07-27T01:22:26.281Z,98144.94
2022-07-27T01:25:32.506Z,98142.91
2022-07-27T01:28:37.843Z,98144.09
2022-07-27T01:31:44.779Z,98147.94
2022-07-27T01:34:50.415Z,98142.66
2022-07-27T01:38:01.067Z,98149.63
2022-07-27T01:41:07.348Z,98140.97
2022-07-27T01:44:13.570Z,98127.91
2022-07-27T01:47:19.766Z,98130.06
2022-07-27T01:50:25.181Z,98127.28
2022-07-27T01:53:34.485Z,98128.84
2022-07-27T01:56:39.875Z,98138.47
2022-07-27T01:59:46.346Z,98146.72
2022-07-27T02:02:51.974Z,98140.25
2022-07-27T02:05:58.426Z,98129.09
2022-07-27T02:09:06.816Z,98148.56
2022-07-27T02:12:28.783Z,98150.09
2022-07-27T02:15:42.997Z,98150.00
2022-07-27T02:18:51.060Z,98155.38
2022-07-27T02:21:56.668Z,98150.22
2022-07-27T02:25:06.460Z,98151.31
2022-07-27T02:28:12.616Z,98159.34
2022-07-27T02:31:19.058Z,98162.22
2022-07-27T02:34:24.377Z,98164.97
2022-07-27T02:37:30.873Z,98174.69
2022-07-27T02:40:39.470Z,98168.44
2022-07-27T02:43:45.663Z,98171.44
2022-07-27T02:46:51.301Z,98170.13
2022-07-27T02:49:57.741Z,98173.84
2022-07-27T02:53:03.375Z,98181.88
2022-07-27T02:56:12.520Z,98186.31
2022-07-27T02:59:18.293Z,98174.28
2022-07-27T03:02:24.529Z,98186.78
2022-07-27T03:05:30.172Z,98177.16
2022-07-27T03:08:36.526Z,98177.25
2022-07-27T03:11:45.010Z,98178.09
2022-07-27T03:14:51.311Z,98171.13
2022-07-27T03:17:57.209Z,98180.97
2022-07-27T03:21:04.127Z,98180.03
2022-07-27T03:24:10.174Z,98178.31
2022-07-27T03:27:19.282Z,98186.97
2022-07-27T03:30:24.696Z,98182.44
2022-07-27T03:33:30.997Z,98181.25
2022-07-27T03:36:36.523Z,98182.09
2022-07-27T03:39:43.026Z,98189.66
2022-07-27T03:42:51.610Z,98187.75
2022-07-27T03:45:57.903Z,98196.16
2022-07-27T03:49:03.467Z,98196.63
2022-07-27T03:52:21.255Z,98196.31
2022-07-27T03:55:27.886Z,98194.97
2022-07-27T03:58:37.908Z,98189.22
2022-07-27T04:01:43.373Z,98190.69
2022-07-27T04:04:49.904Z,98188.53
2022-07-27T04:07:55.866Z,98181.09
2022-07-27T04:11:03.080Z,98181.69
2022-07-27T04:14:12.722Z,98182.28
2022-07-27T04:17:54.169Z,98191.53
2022-07-27T04:20:45.074Z,98195.00
2022-07-27T04:23:51.540Z,98189.59
2022-07-27T04:26:57.212Z,98189.25
2022-07-27T04:30:09.722Z,98189.72
2022-07-27T04:33:15.591Z,98196.47
2022-07-27T04:36:21.990Z,98201.50
2022-07-27T04:39:27.478Z,98203.78
2022-07-27T04:42:33.822Z,98205.81
2022-07-27T04:45:42.076Z,98199.78
2022-07-27T04:48:49.062Z,98206.03
2022-07-27T04:51:57.596Z,98215.84
2022-07-27T04:55:03.816Z,98204.53
2022-07-27T04:58:10.848Z,98200.16
2022-07-27T05:01:19.972Z,98210.25
2022-07-27T05:04:25.474Z,98208.31
2022-07-27T05:07:32.075Z,98208.53
2022-07-27T05:10:37.755Z,98206.31
2022-07-27T05:13:44.753Z,98218.97
2022-07-27T05:16:53.090Z,98215.28
2022-07-27T05:19:59.420Z,98211.66
2022-07-27T05:23:06.090Z,98223.91
2022-07-27T05:26:12.543Z,98226.66
2022-07-27T05:29:17.936Z,98212.44
2022-07-27T05:32:27.128Z,98212.47
2022-07-27T05:35:32.624Z,98206.06
2022-07-27T05:38:41.274Z,98207.50
2022-07-27T05:41:46.698Z,98209.47
2022-07-27T05:44:58.049Z,98217.88
2022-07-27T05:48:06.568Z,98227.28
2022-07-27T05:51:12.812Z,98237.34
2022-07-27T05:54:19.100Z,98236.34
2022-07-27T05:57:25.368Z,98240.53
2022-07-27T06:00:32.729Z,98245.00
2022-07-27T06:03:43.257Z,98256.13
2022-07-27T06:07:04.569Z,98259.59
2022-07-27T06:10:11.827Z,98255.25
2022-07-27T06:13:17.298Z,98242.50
2022-07-27T06:16:23.635Z,98235.41
2022-07-27T06:19:36.379Z,98245.09
2022-07-27T06:22:50.631Z,98250.16
2022-07-27T06:25:56.041Z,98258.53
2022-07-27T06:29:09.962Z,98249.00
2022-07-27T06:32:16.833Z,98259.59
2022-07-27T06:36:33.939Z,98263.78
2022-07-27T06:39:42.445Z,98252.53
2022-07-27T06:47:33.743Z,98252.72
2022-07-27T06:50:39.984Z,98264.13
2022-07-27T06:53:46.184Z,98262.97
2022-07-27T06:56:55.477Z,98263.44
2022-07-27T07:00:00.981Z,98270.31
2022-07-27T07:03:09.323Z,98263.00
2022-07-27T07:06:15.098Z,98275.88
2022-07-27T07:09:22.375Z,98278.22
2022-07-27T07:12:32.465Z,98277.19
2022-07-27T07:15:40.708Z,98270.50
2022-07-27T07:18:51.795Z,98275.06
2022-07-27T07:21:58.776Z,98275.19
2022-07-27T07:25:04.234Z,98275.34
2022-07-27T07:28:13.483Z,98281.66
2022-07-27T07:31:20.622Z,98275.34
2022-07-27T07:34:27.566Z,98282.03
2022-07-27T07:37:33.828Z,98279.75
2022-07-27T07:40:43.851Z,98281.75
2022-07-27T07:43:53.565Z,98284.78
2022-07-27T07:47:00.196Z,98290.88
2022-07-27T07:50:09.966Z,98283.25
2022-07-27T07:53:17.947Z,98291.53
2022-07-27T07:56:23.659Z,98297.59
2022-07-27T07:59:32.734Z,98289.91
2022-07-27T08:02:46.531Z,98294.03
2022-07-27T08:05:52.788Z,98297.34
2022-07-27T08:08:58.679Z,98302.13
2022-07-27T08:12:05.568Z,98294.47
2022-07-27T08:15:15.087Z,98295.75
2022-07-27T08:18:22.029Z,98295.56
2022-07-27T08:21:29.135Z,98295.16
2022-07-27T08:24:44.762Z,98291.81
2022-07-27T08:27:50.133Z,98298.63
2022-07-27T08:30:59.593Z,98302.28
2022-07-27T08:34:06.170Z,98300.91
2022-07-27T08:37:15.537Z,98289.97
2022-07-27T08:40:41.388Z,98293.66
2022-07-27T08:43:52.070Z,98300.81
2022-07-27T08:47:01.133Z,98295.44
2022-07-27T08:50:23.437Z,98292.09
2022-07-27T08:53:52.181Z,98293.25
2022-07-27T08:57:00.271Z,98295.13
2022-07-27T09:00:08.023Z,98292.16
2022-07-27T09:03:20.725Z,98297.13
2022-07-27T09:06:43.848Z,98287.31
2022-07-27T09:09:50.573Z,98304.09
2022-07-27T09:12:56.042Z,98297.38
2022-07-27T09:16:20.899Z,98304.66
2022-07-27T09:19:29.287Z,98293.81
2022-07-27T09:22:51.120Z,98305.13
2022-07-27T09:26:29.608Z,98307.72
2022-07-27T09:29:38.550Z,98302.69
2022-07-27T09:32:55.644Z,98294.84
2022-07-27T09:36:06.816Z,98298.81
2022-07-27T09:39:12.262Z,98299.50
2022-07-27T09:42:59.225Z,98286.16
2022-07-27T09:45:51.473Z,98280.25
2022-07-27T09:48:58.547Z,98281.50
2022-07-27T09:52:07.395Z,98274.03
2022-07-27T09:55:14.496Z,98276.22
2022-07-27T09:58:20.023Z,98280.25
2022-07-27T10:01:28.106Z,98276.75
2022-07-27T10:04:36.821Z,98277.09
2022-07-27T10:07:46.018Z,98275.31
2022-07-27T10:10:52.077Z,98273.81
2022-07-27T10:14:00.476Z,98277.81
2022-07-27T10:17:12.953Z,98280.81
2022-07-27T10:20:21.741Z,98271.16
2022-07-27T10:23:35.973Z,98278.84
2022-07-27T10:26:44.040Z,98276.31
2022-07-27T10:29:50.880Z,98280.16
2022-07-27T10:32:57.312Z,98281.97
2022-07-27T10:36:04.437Z,98286.13
2022-07-27T10:39:13.581Z,98281.81
2022-07-27T10:42:35.493Z,98283.81
2022-07-27T10:45:59.978Z,98276.81
2022-07-27T10:49:21.729Z,98278.47
2022-07-27T10:52:45.306Z,98279.84
2022-07-27T11:00:17.807Z,98280.34
2022-07-27T11:03:24.027Z,98281.84
2022-07-27T11:06:48.134Z,98271.47
2022-07-27T11:10:05.227Z,98288.88
2022-07-27T11:13:10.938Z,98281.84
2022-07-27T11:16:28.520Z,98278.69
2022-07-27T11:19:33.997Z,98283.88
2022-07-27T11:26:07.395Z,98284.50
2022-07-27T11:29:16.047Z,98283.16
2022-07-27T11:32:25.232Z,98278.09
2022-07-27T11:35:31.472Z,98276.06
2022-07-27T11:38:48.853Z,98274.03
2022-07-27T11:42:11.883Z,98270.03
2022-07-27T11:45:31.787Z,98265.63
2022-07-27T11:49:05.087Z,98253.50
2022-07-27T11:52:09.678Z,98266.53
2022-07-27T11:55:15.968Z,98259.78
2022-07-27T11:58:21.267Z,98250.06
2022-07-27T12:01:32.443Z,98249.28
2022-07-27T12:04:42.148Z,98236.34
2022-07-27T12:07:48.474Z,98236.09
2022-07-27T12:11:01.190Z,98229.75
2022-07-27T12:14:15.219Z,98228.34
2022-07-27T12:17:31.848Z,98234.84
2022-07-27T12:20:40.927Z,98231.09
2022-07-27T12:23:52.898Z,98221.09
2022-07-27T12:27:07.341Z,98214.16
2022-07-27T12:30:15.694Z,98213.47
2022-07-27T12:33:30.039Z,98213.94
2022-07-27T12:36:44.575Z,98204.63
2022-07-27T12:39:53.397Z,98201.06
2022-07-27T12:43:00.762Z,98205.00
2022-07-27T12:46:15.848Z,98209.28
2022-07-27T12:49:21.332Z,98211.97
2022-07-27T12:52:30.665Z,98200.75
2022-07-27T12:55:36.252Z,98212.38
2022-07-27T12:58:42.584Z,98210.41
2022-07-27T13:01:48.276Z,98229.91
2022-07-27T13:04:55.161Z,98215.38
2022-07-27T13:08:03.586Z,98210.34
2022-07-27T13:11:10.112Z,98215.19
2022-07-27T13:14:19.412Z,98207.44
2022-07-27T13:17:25.827Z,98209.81
2022-07-27T13:20:31.428Z,98200.09
2022-07-27T13:23:40.583Z,98190.69
2022-07-27T13:26:45.943Z,98190.84
2022-07-27T13:29:52.154Z,98191.94
2022-07-27T13:32:57.796Z,98187.16
2022-07-27T13:36:05.355Z,98189.97
2022-07-27T13:39:15.567Z,98199.72
2022-07-27T13:42:22.032Z,98192.03
2022-07-27T13:45:28.309Z,98189.94
2022-07-27T13:48:48.511Z,98192.84
2022-07-27T13:51:54.001Z,98190.94
2022-07-27T13:55:03.088Z,98205.47
2022-07-27T13:58:14.133Z,98196.66
2022-07-27T14:01:20.400Z,98190.94
2022-07-27T14:04:28.556Z,98186.91
2022-07-27T14:07:35.055Z,98185.44
2022-07-27T14:10:48.347Z,98191.91
2022-07-27T14:13:57.886Z,98181.41
2022-07-27T14:17:03.375Z,98188.44
2022-07-27T14:20:15.195Z,98187.25
2022-07-27T14:23:20.598Z,98177.84
2022-07-27T14:26:29.618Z,98178.50
2022-07-27T14:29:34.976Z,98182.25
2022-07-27T14:32:41.176Z,98182.19
2022-07-27T14:35:47.437Z,98178.75
2022-07-27T14:38:53.755Z,98182.16
2022-07-27T14:42:03.621Z,98180.75
2022-07-27T14:45:11.823Z,98172.66
2022-07-27T14:48:25.293Z,98166.34
2022-07-27T14:51:34.614Z,98163.00
2022-07-27T14:54:39.968Z,98156.63
2022-07-27T14:57:49.351Z,98161.63
2022-07-27T15:00:55.666Z,98161.16
2022-07-27T15:04:03.300Z,98159.41
2022-07-27T15:07:09.062Z,98164.91
2022-07-27T15:10:15.626Z,98172.72
2022-07-27T15:13:23.854Z,98163.31
2022-07-27T15:16:31.346Z,98160.41
2022-07-27T15:19:36.833Z,98160.41
2022-07-27T15:22:43.394Z,98160.94
2022-07-27T15:25:49.075Z,98148.16
2022-07-27T15:28:58.364Z,98146.63
2022-07-27T15:32:03.971Z,98144.56
2022-07-27T15:35:10.837Z,98142.19
2022-07-27T15:38:16.192Z,98142.22
2022-07-27T15:41:22.475Z,98148.78
2022-07-27T15:44:30.780Z,98148.53
2022-07-27T15:47:37.594Z,98147.69
2022-07-27T15:50:48.757Z,98156.41
2022-07-27T15:53:56.145Z,98163.94
2022-07-27T15:57:03.131Z,98160.56
2022-07-27T16:00:14.052Z,98154.78
2022-07-27T16:03:21.722Z,98156.41
2022-07-27T16:06:28.079Z,98158.81
2022-07-27T16:09:33.525Z,98182.88
2022-07-27T16:12:39.924Z,98177.75
2022-07-27T16:16:18.632Z,98181.75
2022-07-27T16:19:24.922Z,98193.75
2022-07-27T16:22:32.137Z,98172.06
2022-07-27T16:26:02.019Z,98169.34
2022-07-27T16:29:03.944Z,98160.19
2022-07-27T16:32:13.274Z,98156.63
2022-07-27T16:35:18.634Z,98153.91
2022-07-27T16:38:25.836Z,98154.50
2022-07-27T16:41:31.301Z,98162.50
2022-07-27T16:44:39.945Z,98151.94
2022-07-27T16:47:48.282Z,98161.34
2022-07-27T16:50:54.548Z,98161.25
2022-07-27T16:54:00.016Z,98168.81
2022-07-27T16:57:08.195Z,98170.69
2022-07-27T17:00:14.477Z,98165.19
2022-07-27T17:03:24.619Z,98187.25
2022-07-27T17:06:32.038Z,98184.72
2022-07-27T17:09:38.300Z,98201.09
2022-07-27T17:12:43.932Z,98188.88
2022-07-27T17:15:55.024Z,98184.56
2022-07-27T17:19:03.232Z,98183.88
2022-07-27T17:22:09.743Z,98183.22
2022-07-27T17:25:15.221Z,98196.91
2022-07-27T17:28:21.469Z,98209.56
2022-07-27T17:31:26.943Z,98203.78
2022-07-27T17:34:36.005Z,98212.44
2022-07-27T17:38:04.445Z,98223.56
2022-07-27T17:41:08.000Z,98215.00
2022-07-27T17:44:13.378Z,98228.59
2022-07-27T17:47:19.646Z,98220.03
2022-07-27T17:50:27.909Z,98213.44
2022-07-27T17:53:34.194Z,98204.88
2022-07-27T17:59:46.623Z,98210.28
2022-07-27T18:02:52.625Z,98203.91
2022-07-27T18:06:03.393Z,98221.00
2022-07-27T18:09:09.208Z,98222.09
2022-07-27T18:12:21.591Z,98219.03
2022-07-27T18:15:42.832Z,98224.38
2022-07-27T18:18:49.071Z,98231.81
2022-07-27T18:21:57.537Z,98227.47
2022-07-27T18:25:03.789Z,98232.53
2022-07-27T18:28:09.205Z,98235.34
2022-07-27T18:31:18.331Z,98228.31
2022-07-27T18:34:23.757Z,98222.75
2022-07-27T18:37:32.840Z,98229.38
2022-07-27T18:40:38.316Z,98231.22
2022-07-27T18:43:51.177Z,98235.69
2022-07-27T18:46:56.631Z,98237.13
2022-07-27T18:50:03.223Z,98259.00
2022-07-27T18:53:12.065Z,98256.78
2022-07-27T18:56:18.497Z,98263.00
2022-07-27T18:59:24.004Z,98264.44
2022-07-27T19:02:35.835Z,98265.59
2022-07-27T19:05:45.048Z,98267.56
2022-07-27T19:08:54.953Z,98270.09
2022-07-27T19:12:01.835Z,98275.72
2022-07-27T19:15:11.160Z,98277.84
2022-07-27T19:18:16.551Z,98276.09
2022-07-27T19:21:23.249Z,98282.97
2022-07-27T19:24:32.022Z,98294.91
2022-07-27T19:27:38.536Z,98299.16
2022-07-27T19:30:44.332Z,98306.72
2022-07-27T19:33:51.267Z,98309.50
2022-07-27T19:36:57.127Z,98307.81
2022-07-27T19:40:33.727Z,98319.31
2022-07-27T19:43:33.768Z,98320.72
2022-07-27T19:46:41.347Z,98323.84
2022-07-27T19:49:46.759Z,98327.06
2022-07-27T19:52:53.285Z,98327.78
2022-07-27T19:56:03.045Z,98333.16
2022-07-27T19:59:10.002Z,98332.34
2022-07-27T20:02:16.910Z,98334.03
2022-07-27T20:05:23.292Z,98332.06
2022-07-27T20:08:29.803Z,98341.88
2022-07-27T20:11:39.323Z,98348.63
2022-07-27T20:14:44.758Z,98342.44
2022-07-27T20:17:51.166Z,98347.19
2022-07-27T20:20:57.141Z,98351.66
2022-07-27T20:24:04.606Z,98364.78
2022-07-27T20:27:13.245Z,98364.25
2022-07-27T20:30:21.231Z,98368.69
2022-07-27T20:33:31.070Z,98378.19
2022-07-27T20:36:38.984Z,98387.66
2022-07-27T20:39:44.663Z,98391.28
2022-07-27T20:42:53.690Z,98410.03
2022-07-27T20:45:59.510Z,98399.81
2022-07-27T20:49:08.222Z,98389.19
2022-07-27T20:52:13.642Z,98397.84
2022-07-27T20:55:19.928Z,98404.13
2022-07-27T20:58:28.084Z,98403.28
2022-07-27T21:01:34.447Z,98411.66
2022-07-27T21:04:40.224Z,98412.19
2022-07-27T21:07:46.860Z,98400.13
2022-07-27T21:10:52.535Z,98407.00
2022-07-27T21:14:03.040Z,98403.25
2022-07-27T21:17:08.417Z,98398.06
2022-07-27T21:20:15.779Z,98398.19
2022-07-27T21:23:37.082Z,98403.06
2022-07-27T21:26:43.417Z,98409.88
2022-07-27T21:29:52.087Z,98417.16
2022-07-27T21:32:58.341Z,98412.09
2022-07-27T21:36:04.070Z,98411.91
2022-07-27T21:39:10.692Z,98418.72
2022-07-27T21:42:17.282Z,98419.38
2022-07-27T21:45:26.802Z,98419.06
2022-07-27T21:48:32.442Z,98410.13
2022-07-27T21:51:39.288Z,98416.16
2022-07-27T21:54:44.958Z,98416.28
2022-07-27T21:57:51.497Z,98423.41
2022-07-27T22:01:00.044Z,98424.09
2022-07-27T22:04:08.665Z,98428.97
2022-07-27T22:07:19.399Z,98425.31
2022-07-27T22:10:25.955Z,98422.66
2022-07-27T22:13:31.684Z,98434.97
2022-07-27T22:16:41.408Z,98433.47
2022-07-27T22:19:47.017Z,98432.31
2022-07-27T22:22:53.954Z,98439.56
2022-07-27T22:25:59.862Z,98438.97
2022-07-27T22:29:08.560Z,98451.53
2022-07-27T22:32:16.818Z,98447.59
2022-07-27T22:35:23.122Z,98455.34
2022-07-27T22:38:28.501Z,98447.59
2022-07-27T22:41:34.749Z,98452.59
2022-07-27T22:44:42.647Z,98454.88
2022-07-27T22:47:51.766Z,98460.72
2022-07-27T22:50:57.267Z,98465.53
2022-07-27T22:54:03.765Z,98461.31
2022-07-27T22:57:09.907Z,98461.31
2022-07-27T23:00:18.781Z,98464.81
2022-07-27T23:03:27.288Z,98477.09
2022-07-27T23:06:33.548Z,98475.66
2022-07-27T23:09:38.931Z,98474.94
2022-07-27T23:12:45.432Z,98471.84
2022-07-27T23:15:51.116Z,98475.97
2022-07-27T23:19:00.188Z,98467.41
2022-07-27T23:22:07.322Z,98470.44
2022-07-27T23:25:17.918Z,98476.69
2022-07-27T23:28:27.400Z,98474.78
2022-07-27T23:31:33.803Z,98478.41
2022-07-27T23:34:42.311Z,98474.78
2022-07-27T23:37:48.531Z,98467.09
2022-07-27T23:40:54.329Z,98475.28
2022-07-27T23:44:00.715Z,98479.13
2022-07-27T23:47:07.545Z,98478.41
2022-07-27T23:50:18.053Z,98481.06
2022-07-27T23:53:24.118Z,98482.53
2022-07-27T23:56:30.592Z,98477.47
2022-07-27T23:59:35.956Z,98479.53
